createdAt,value
2016-08-12T00:00:56.993Z,0.00
2016-08-12T00:01:57.540Z,0.00
2016-08-12T00:03:58.616Z,0.00
2016-08-12T00:04:59.163Z,0.00
2016-08-12T00:05:59.557Z,0.00
2016-08-12T00:07:00.127Z,0.00
2016-08-12T00:08:00.643Z,0.00
2016-08-12T00:09:02.397Z,0.00
2016-08-12T00:10:01.873Z,0.00
2016-08-12T00:11:02.263Z,0.00
2016-08-12T00:12:02.798Z,0.00
2016-08-12T00:13:03.334Z,0.00
2016-08-12T00:14:03.877Z,0.00
2016-08-12T00:15:04.424Z,0.00
2016-08-12T00:16:05.119Z,0.00
2016-08-12T00:17:05.513Z,0.00
2016-08-12T00:19:02.401Z,0.00
2016-08-12T00:21:07.691Z,0.00
2016-08-12T00:22:08.235Z,0.00
2016-08-12T00:23:08.776Z,0.00
2016-08-12T00:24:09.322Z,0.00
2016-08-12T00:25:09.882Z,0.00
2016-08-12T00:26:10.558Z,0.00
2016-08-12T00:27:10.938Z,0.00
2016-08-12T00:28:11.489Z,0.00
2016-08-12T00:29:12.029Z,0.00
2016-08-12T00:30:12.568Z,0.00
2016-08-12T00:31:13.264Z,0.00
2016-08-12T00:32:13.660Z,0.00
2016-08-12T00:34:14.740Z,0.00
2016-08-12T00:35:15.433Z,0.00
2016-08-12T00:36:15.823Z,0.00
2016-08-12T00:37:16.372Z,0.00
2016-08-12T00:38:16.924Z,0.00
2016-08-12T00:39:17.603Z,0.00
2016-08-12T00:40:18.142Z,0.00
2016-08-12T00:41:18.538Z,0.00
2016-08-12T00:42:19.080Z,0.00
2016-08-12T00:43:19.618Z,0.00
2016-08-12T00:44:20.345Z,0.00
2016-08-12T00:45:20.700Z,0.00
2016-08-12T00:46:21.245Z,0.00
2016-08-12T00:47:21.966Z,0.00
2016-08-12T00:49:23.026Z,0.00
2016-08-12T00:50:23.562Z,0.00
2016-08-12T00:51:23.956Z,0.00
2016-08-12T00:52:24.502Z,0.00
2016-08-12T00:53:25.045Z,0.00
2016-08-12T00:54:25.594Z,0.00
2016-08-12T00:55:26.154Z,0.00
2016-08-12T00:56:26.688Z,0.00
2016-08-12T00:57:27.374Z,0.00
2016-08-12T00:58:27.923Z,0.00
2016-08-12T00:59:28.317Z,0.00
2016-08-12T01:00:28.858Z,0.00
2016-08-12T01:01:29.398Z,0.00
2016-08-12T01:02:29.937Z,0.00
2016-08-12T01:04:22.312Z,0.00
2016-08-12T01:05:31.564Z,0.00
2016-08-12T01:06:32.555Z,0.00
2016-08-12T01:07:32.647Z,0.00
2016-08-12T01:08:33.191Z,0.00
2016-08-12T01:09:33.738Z,0.00
2016-08-12T01:10:34.277Z,0.00
2016-08-12T01:11:34.967Z,0.00
2016-08-12T01:12:35.374Z,0.00
2016-08-12T01:13:35.900Z,0.00
2016-08-12T01:14:37.042Z,0.00
2016-08-12T01:15:36.991Z,0.00
2016-08-12T01:16:37.525Z,0.00
2016-08-12T01:17:38.061Z,0.00
2016-08-12T01:18:38.607Z,0.00
2016-08-12T01:19:39.301Z,0.00
2016-08-12T01:20:40.138Z,0.00
2016-08-12T01:21:40.226Z,0.00
2016-08-12T01:22:40.799Z,0.00
2016-08-12T01:23:41.312Z,0.00
2016-08-12T01:24:41.858Z,0.00
2016-08-12T01:25:42.405Z,0.00
2016-08-12T01:26:42.944Z,0.00
2016-08-12T01:27:43.489Z,0.00
2016-08-12T01:28:44.027Z,0.00
2016-08-12T01:29:44.573Z,0.00
2016-08-12T01:30:45.113Z,0.00
2016-08-12T01:31:45.808Z,0.00
2016-08-12T01:32:46.347Z,0.00
2016-08-12T01:34:42.926Z,0.00
2016-08-12T01:35:47.837Z,0.00
2016-08-12T01:36:48.369Z,0.00
2016-08-12T01:37:48.916Z,0.00
2016-08-12T01:38:49.454Z,0.00
2016-08-12T01:39:50.001Z,0.00
2016-08-12T01:40:50.537Z,0.00
2016-08-12T01:41:51.093Z,0.00
2016-08-12T01:42:51.621Z,0.00
2016-08-12T01:43:52.159Z,0.00
2016-08-12T01:44:54.808Z,0.00
2016-08-12T01:45:53.255Z,0.00
2016-08-12T01:46:54.234Z,0.00
2016-08-12T01:47:54.327Z,0.00
2016-08-12T01:48:55.033Z,0.00
2016-08-12T01:49:55.423Z,0.00
2016-08-12T01:50:56.106Z,0.00
2016-08-12T01:51:56.512Z,0.00
2016-08-12T01:52:57.491Z,0.00
2016-08-12T01:53:57.735Z,0.00
2016-08-12T01:54:58.125Z,0.00
2016-08-12T01:55:58.674Z,0.00
2016-08-12T01:56:59.212Z,0.00
2016-08-12T01:57:59.903Z,0.00
2016-08-12T01:59:00.293Z,0.00
2016-08-12T02:00:00.832Z,0.00
2016-08-12T02:01:01.403Z,0.00
2016-08-12T02:02:02.087Z,0.00
2016-08-12T02:03:02.463Z,0.00
2016-08-12T02:04:03.013Z,0.00
2016-08-12T02:05:03.548Z,0.00
2016-08-12T02:06:04.096Z,0.00
2016-08-12T02:07:04.638Z,0.00
2016-08-12T02:08:05.182Z,0.00
2016-08-12T02:09:05.733Z,0.00
2016-08-12T02:10:06.298Z,0.00
2016-08-12T02:11:06.821Z,0.00
2016-08-12T02:12:07.366Z,0.00
2016-08-12T02:13:07.901Z,0.00
2016-08-12T02:14:08.595Z,0.00
2016-08-12T02:15:08.985Z,0.00
2016-08-12T02:16:09.526Z,0.00
2016-08-12T02:17:10.221Z,0.00
2016-08-12T02:18:10.611Z,0.00
2016-08-12T02:19:11.187Z,0.00
2016-08-12T02:20:11.697Z,0.00
2016-08-12T02:21:12.241Z,0.00
2016-08-12T02:22:12.785Z,0.00
2016-08-12T02:23:13.335Z,0.00
2016-08-12T02:24:13.872Z,0.00
2016-08-12T02:25:14.556Z,0.00
2016-08-12T02:26:14.948Z,0.00
2016-08-12T02:27:15.490Z,0.00
2016-08-12T02:28:16.042Z,0.00
2016-08-12T02:29:16.581Z,0.00
2016-08-12T02:30:17.117Z,0.00
2016-08-12T02:31:17.665Z,0.00
2016-08-12T02:32:18.204Z,0.00
2016-08-12T02:33:18.901Z,0.00
2016-08-12T02:34:19.439Z,0.00
2016-08-12T02:35:19.829Z,0.00
2016-08-12T02:36:20.520Z,0.00
2016-08-12T02:37:20.914Z,0.00
2016-08-12T02:38:21.505Z,0.00
2016-08-12T02:39:22.001Z,0.00
2016-08-12T02:40:22.541Z,0.00
2016-08-12T02:41:23.240Z,0.00
2016-08-12T02:42:23.636Z,0.00
2016-08-12T02:43:24.174Z,0.00
2016-08-12T02:44:25.170Z,0.00
2016-08-12T02:45:25.413Z,0.00
2016-08-12T02:46:25.818Z,0.00
2016-08-12T02:47:26.382Z,0.00
2016-08-12T02:48:27.047Z,0.00
2016-08-12T02:49:27.436Z,0.00
2016-08-12T02:50:27.973Z,0.00
2016-08-12T02:51:28.515Z,0.00
2016-08-12T02:52:29.052Z,0.00
2016-08-12T02:53:29.600Z,0.00
2016-08-12T02:54:30.137Z,0.00
2016-08-12T02:55:30.827Z,0.00
2016-08-12T02:56:31.228Z,0.00
2016-08-12T02:57:31.922Z,0.00
2016-08-12T02:58:32.308Z,0.00
2016-08-12T02:59:33.001Z,0.00
2016-08-12T03:00:33.394Z,0.00
2016-08-12T03:01:33.932Z,0.00
2016-08-12T03:02:34.480Z,0.00
2016-08-12T03:04:22.501Z,0.00
2016-08-12T03:05:36.252Z,0.00
2016-08-12T03:06:36.652Z,0.00
2016-08-12T03:07:37.188Z,0.00
2016-08-12T03:08:37.737Z,0.00
2016-08-12T03:09:38.272Z,0.00
2016-08-12T03:10:38.816Z,0.00
2016-08-12T03:11:39.354Z,0.00
2016-08-12T03:12:39.894Z,0.00
2016-08-12T03:13:40.461Z,0.00
2016-08-12T03:14:40.976Z,0.00
2016-08-12T03:15:41.526Z,0.00
2016-08-12T03:16:42.095Z,0.00
2016-08-12T03:17:42.763Z,0.00
2016-08-12T03:19:30.620Z,0.00
2016-08-12T03:20:44.411Z,0.00
2016-08-12T03:21:44.921Z,0.00
2016-08-12T03:22:45.338Z,0.00
2016-08-12T03:23:45.876Z,0.00
2016-08-12T03:24:46.421Z,0.00
2016-08-12T03:25:46.980Z,0.00
2016-08-12T03:26:47.506Z,0.00
2016-08-12T03:27:48.042Z,0.00
2016-08-12T03:28:48.584Z,0.00
2016-08-12T03:29:49.131Z,0.00
2016-08-12T03:30:49.685Z,0.00
2016-08-12T03:31:50.373Z,0.00
2016-08-12T03:32:50.769Z,0.00
2016-08-12T03:34:47.487Z,0.00
2016-08-12T03:35:52.531Z,0.00
2016-08-12T03:36:52.924Z,0.00
2016-08-12T03:37:53.471Z,0.00
2016-08-12T03:38:55.666Z,0.00
2016-08-12T03:39:54.552Z,0.00
2016-08-12T03:40:55.093Z,0.00
2016-08-12T03:41:55.796Z,0.00
2016-08-12T03:42:56.330Z,0.00
2016-08-12T03:43:56.725Z,0.00
2016-08-12T03:44:57.273Z,0.00
2016-08-12T03:45:57.802Z,0.00
2016-08-12T03:46:58.358Z,0.00
2016-08-12T03:47:58.886Z,0.00
2016-08-12T03:49:47.059Z,0.00
2016-08-12T03:51:00.664Z,0.00
2016-08-12T03:52:01.057Z,0.00
2016-08-12T03:53:01.593Z,0.00
2016-08-12T03:54:02.154Z,0.00
2016-08-12T03:55:02.829Z,0.00
2016-08-12T03:56:03.221Z,0.00
2016-08-12T03:57:03.760Z,0.00
2016-08-12T03:58:04.308Z,0.00
2016-08-12T03:59:04.859Z,0.00
2016-08-12T04:00:05.401Z,0.00
2016-08-12T04:01:06.095Z,0.00
2016-08-12T04:02:06.493Z,0.00
2016-08-12T04:03:07.040Z,0.00
2016-08-12T04:04:50.691Z,0.00
2016-08-12T04:06:08.832Z,0.00
2016-08-12T04:07:09.208Z,0.00
2016-08-12T04:08:09.751Z,0.00
2016-08-12T04:09:11.944Z,0.00
2016-08-12T04:10:10.830Z,0.00
2016-08-12T04:11:11.385Z,0.00
2016-08-12T04:12:11.912Z,0.00
2016-08-12T04:13:12.603Z,0.00
2016-08-12T04:14:13.139Z,0.00
2016-08-12T04:15:13.532Z,0.00
2016-08-12T04:16:14.079Z,0.00
2016-08-12T04:17:14.650Z,0.00
2016-08-12T04:18:15.162Z,0.00
2016-08-12T04:20:16.245Z,0.00
2016-08-12T04:21:16.785Z,0.00
2016-08-12T04:22:17.330Z,0.00
2016-08-12T04:23:17.874Z,0.00
2016-08-12T04:24:18.421Z,0.00
2016-08-12T04:25:18.957Z,0.00
2016-08-12T04:26:19.499Z,0.00
2016-08-12T04:27:20.044Z,0.00
2016-08-12T04:28:20.581Z,0.00
2016-08-12T04:29:21.139Z,0.00
2016-08-12T04:30:21.815Z,0.00
2016-08-12T04:31:22.359Z,0.00
2016-08-12T04:32:22.775Z,0.00
2016-08-12T04:33:23.287Z,0.00
2016-08-12T04:34:23.831Z,0.00
2016-08-12T04:35:24.373Z,0.00
2016-08-12T04:36:25.078Z,0.00
2016-08-12T04:37:25.479Z,0.00
2016-08-12T04:38:26.011Z,0.00
2016-08-12T04:39:26.558Z,0.00
2016-08-12T04:40:27.095Z,0.00
2016-08-12T04:41:27.802Z,0.00
2016-08-12T04:42:28.187Z,0.00
2016-08-12T04:43:28.729Z,0.00
2016-08-12T04:44:29.283Z,0.00
2016-08-12T04:45:29.811Z,0.00
2016-08-12T04:46:30.498Z,0.00
2016-08-12T04:47:31.038Z,0.00
2016-08-12T04:48:31.583Z,0.00
2016-08-12T04:49:32.272Z,0.00
2016-08-12T04:50:32.518Z,0.00
2016-08-12T04:51:33.818Z,0.00
2016-08-12T04:52:33.600Z,0.00
2016-08-12T04:53:34.148Z,0.00
2016-08-12T04:54:34.684Z,0.00
2016-08-12T04:55:35.229Z,0.00
2016-08-12T04:56:35.776Z,0.00
2016-08-12T04:57:36.312Z,0.00
2016-08-12T04:58:36.997Z,0.00
2016-08-12T04:59:37.397Z,0.00
2016-08-12T05:00:37.932Z,0.00
2016-08-12T05:01:38.624Z,0.00
2016-08-12T05:02:39.014Z,0.00
2016-08-12T05:03:39.552Z,0.00
2016-08-12T05:04:40.133Z,0.00
2016-08-12T05:05:40.789Z,0.00
2016-08-12T05:06:42.230Z,0.00
2016-08-12T05:07:41.730Z,0.00
2016-08-12T05:08:42.264Z,0.00
2016-08-12T05:09:42.818Z,0.00
2016-08-12T05:10:43.352Z,0.00
2016-08-12T05:11:43.896Z,0.00
2016-08-12T05:12:44.459Z,0.00
2016-08-12T05:13:45.282Z,0.00
2016-08-12T05:14:45.683Z,0.00
2016-08-12T05:15:46.072Z,0.00
2016-08-12T05:16:46.618Z,0.00
2016-08-12T05:17:47.312Z,1.00
2016-08-12T05:18:47.703Z,1.00
2016-08-12T05:19:48.240Z,1.00
2016-08-12T05:20:48.809Z,1.00
2016-08-12T05:21:49.326Z,1.00
2016-08-12T05:22:50.017Z,1.00
2016-08-12T05:23:50.407Z,1.00
2016-08-12T05:24:51.414Z,1.00
2016-08-12T05:25:51.653Z,1.00
2016-08-12T05:26:52.303Z,1.00
2016-08-12T05:27:53.000Z,1.00
2016-08-12T05:28:53.106Z,1.00
2016-08-12T05:29:54.031Z,1.00
2016-08-12T05:30:54.564Z,1.00
2016-08-12T05:31:54.789Z,1.00
2016-08-12T05:32:55.496Z,1.00
2016-08-12T05:33:55.843Z,1.00
2016-08-12T05:34:56.826Z,2.00
2016-08-12T05:35:57.234Z,2.00
2016-08-12T05:36:57.297Z,1.00
2016-08-12T05:37:58.124Z,2.00
2016-08-12T05:38:58.675Z,2.00
2016-08-12T05:39:59.021Z,2.00
2016-08-12T05:40:59.858Z,2.00
2016-08-12T05:42:00.262Z,2.00
2016-08-12T05:43:00.751Z,3.00
2016-08-12T05:44:01.273Z,3.00
2016-08-12T05:45:01.828Z,3.00
2016-08-12T05:46:02.815Z,3.00
2016-08-12T05:47:02.914Z,3.00
2016-08-12T05:48:03.287Z,3.00
2016-08-12T05:49:03.924Z,3.00
2016-08-12T05:50:04.182Z,4.00
2016-08-12T05:51:04.857Z,4.00
2016-08-12T05:52:05.403Z,4.00
2016-08-12T05:53:05.747Z,4.00
2016-08-12T05:54:06.443Z,4.00
2016-08-12T05:55:07.249Z,4.00
2016-08-12T05:56:07.489Z,4.00
2016-08-12T05:57:08.030Z,3.00
2016-08-12T05:58:08.703Z,3.00
2016-08-12T05:59:08.925Z,3.00
2016-08-12T06:00:09.886Z,3.00
2016-08-12T06:01:10.263Z,4.00
2016-08-12T06:02:10.786Z,4.00
2016-08-12T06:03:11.187Z,4.00
2016-08-12T06:04:11.998Z,4.00
2016-08-12T06:05:12.256Z,4.00
2016-08-12T06:06:12.758Z,4.00
2016-08-12T06:07:13.297Z,4.00
2016-08-12T06:08:14.122Z,4.00
2016-08-12T06:09:14.208Z,4.00
2016-08-12T06:10:15.015Z,4.00
2016-08-12T06:11:15.436Z,4.00
2016-08-12T06:12:15.787Z,4.00
2016-08-12T06:13:16.482Z,3.00
2016-08-12T06:14:16.847Z,3.00
2016-08-12T06:15:17.827Z,3.00
2016-08-12T06:16:18.076Z,3.00
2016-08-12T06:17:18.611Z,3.00
2016-08-12T06:18:19.107Z,3.00
2016-08-12T06:19:58.372Z,3.00
2016-08-12T06:21:20.533Z,4.00
2016-08-12T06:22:21.215Z,4.00
2016-08-12T06:23:21.889Z,4.00
2016-08-12T06:24:22.300Z,4.00
2016-08-12T06:25:22.803Z,3.00
2016-08-12T06:26:23.346Z,3.00
2016-08-12T06:27:23.872Z,3.00
2016-08-12T06:28:24.536Z,3.00
2016-08-12T06:29:24.927Z,4.00
2016-08-12T06:30:25.642Z,4.00
2016-08-12T06:31:26.148Z,4.00
2016-08-12T06:32:26.668Z,4.00
2016-08-12T06:33:27.340Z,5.00
2016-08-12T06:35:14.895Z,5.00
2016-08-12T06:36:28.664Z,5.00
2016-08-12T06:37:29.487Z,4.00
2016-08-12T06:38:29.838Z,4.00
2016-08-12T06:39:30.538Z,3.00
2016-08-12T06:40:30.920Z,3.00
2016-08-12T06:41:31.424Z,3.00
2016-08-12T06:42:31.952Z,4.00
2016-08-12T06:43:32.485Z,4.00
2016-08-12T06:44:33.915Z,4.00
2016-08-12T06:45:33.408Z,4.00
2016-08-12T06:46:34.387Z,4.00
2016-08-12T06:47:34.325Z,5.00
2016-08-12T06:48:35.275Z,6.00
2016-08-12T06:50:27.491Z,5.00
2016-08-12T06:51:36.888Z,5.00
2016-08-12T06:52:37.554Z,6.00
2016-08-12T06:53:37.953Z,7.00
2016-08-12T06:54:38.012Z,8.00
2016-08-12T06:55:38.828Z,9.00
2016-08-12T06:56:39.408Z,10.00
2016-08-12T06:57:39.750Z,11.00
2016-08-12T06:58:40.419Z,12.00
2016-08-12T06:59:41.127Z,12.00
2016-08-12T07:00:41.521Z,11.00
2016-08-12T07:01:41.881Z,12.00
2016-08-12T07:02:42.531Z,12.00
2016-08-12T07:03:42.938Z,11.00
2016-08-12T07:05:43.859Z,11.00
2016-08-12T07:06:44.394Z,10.00
2016-08-12T07:07:44.924Z,9.00
2016-08-12T07:08:45.588Z,8.00
2016-08-12T07:09:46.260Z,7.00
2016-08-12T07:10:46.657Z,7.00
2016-08-12T07:11:47.359Z,8.00
2016-08-12T07:12:47.703Z,9.00
2016-08-12T07:13:48.380Z,9.00
2016-08-12T07:14:48.752Z,9.00
2016-08-12T07:15:49.583Z,9.00
2016-08-12T07:16:49.833Z,10.00
2016-08-12T07:17:50.336Z,11.00
2016-08-12T07:18:50.890Z,10.00
2016-08-12T07:19:51.540Z,11.00
2016-08-12T07:20:51.774Z,14.00
2016-08-12T07:21:52.630Z,14.00
2016-08-12T07:22:53.278Z,15.00
2016-08-12T07:23:53.804Z,15.00
2016-08-12T07:24:53.893Z,16.00
2016-08-12T07:25:55.019Z,16.00
2016-08-12T07:26:55.107Z,16.00
2016-08-12T07:27:55.486Z,16.00
2016-08-12T07:28:56.163Z,16.00
2016-08-12T07:29:56.669Z,17.00
2016-08-12T07:30:57.062Z,16.00
2016-08-12T07:31:57.884Z,15.00
2016-08-12T07:32:58.560Z,14.00
2016-08-12T07:33:58.643Z,13.00
2016-08-12T07:34:59.619Z,12.00
2016-08-12T07:36:00.002Z,12.00
2016-08-12T07:37:00.531Z,12.00
2016-08-12T07:38:00.748Z,12.00
2016-08-12T07:39:02.188Z,12.00
2016-08-12T07:40:02.268Z,12.00
2016-08-12T07:41:02.676Z,11.00
2016-08-12T07:42:03.318Z,10.00
2016-08-12T07:43:03.560Z,9.00
2016-08-12T07:44:04.247Z,9.00
2016-08-12T07:45:04.617Z,9.00
2016-08-12T07:46:05.309Z,8.00
2016-08-12T07:47:05.665Z,9.00
2016-08-12T07:48:06.481Z,9.00
2016-08-12T07:49:07.314Z,8.00
2016-08-12T07:50:07.406Z,8.00
2016-08-12T07:51:08.067Z,8.00
2016-08-12T07:52:08.593Z,9.00
2016-08-12T07:53:08.967Z,10.00
2016-08-12T07:54:09.372Z,11.00
2016-08-12T07:55:10.396Z,11.00
2016-08-12T07:56:10.419Z,11.00
2016-08-12T07:57:11.085Z,11.00
2016-08-12T07:58:11.488Z,11.00
2016-08-12T07:59:12.139Z,10.00
2016-08-12T08:00:12.830Z,10.00
2016-08-12T08:01:13.349Z,9.00
2016-08-12T08:02:15.693Z,8.00
2016-08-12T08:03:14.307Z,9.00
2016-08-12T08:04:15.075Z,9.00
2016-08-12T08:05:15.330Z,9.00
2016-08-12T08:06:15.976Z,9.00
2016-08-12T08:07:16.231Z,9.00
2016-08-12T08:08:17.054Z,10.00
2016-08-12T08:09:17.566Z,11.00
2016-08-12T08:10:17.950Z,12.00
2016-08-12T08:11:18.467Z,12.00
2016-08-12T08:12:19.160Z,12.00
2016-08-12T08:13:19.850Z,11.00
2016-08-12T08:14:19.749Z,11.00
2016-08-12T08:15:20.581Z,11.00
2016-08-12T08:16:20.969Z,11.00
2016-08-12T08:17:21.553Z,11.00
2016-08-12T08:18:22.199Z,11.00
2016-08-12T08:19:22.711Z,11.00
2016-08-12T08:20:23.396Z,14.00
2016-08-12T08:21:23.793Z,15.00
2016-08-12T08:22:24.200Z,17.00
2016-08-12T08:23:24.558Z,15.00
2016-08-12T08:24:25.240Z,14.00
2016-08-12T08:25:26.210Z,13.00
2016-08-12T08:26:26.279Z,12.00
2016-08-12T08:27:26.824Z,13.00
2016-08-12T08:28:27.182Z,13.00
2016-08-12T08:29:28.000Z,13.00
2016-08-12T08:30:28.423Z,14.00
2016-08-12T08:31:29.092Z,17.00
2016-08-12T08:32:29.588Z,17.00
2016-08-12T08:33:30.262Z,14.00
2016-08-12T08:34:30.481Z,14.00
2016-08-12T08:35:31.336Z,14.00
2016-08-12T08:36:31.566Z,13.00
2016-08-12T08:37:32.666Z,14.00
2016-08-12T08:38:32.776Z,17.00
2016-08-12T08:39:33.723Z,16.00
2016-08-12T08:40:33.813Z,16.00
2016-08-12T08:41:34.498Z,17.00
2016-08-12T08:42:34.997Z,17.00
2016-08-12T08:43:35.560Z,19.00
2016-08-12T08:44:35.913Z,21.00
2016-08-12T08:45:36.146Z,22.00
2016-08-12T08:46:37.121Z,21.00
2016-08-12T08:47:37.348Z,21.00
2016-08-12T08:48:37.869Z,23.00
2016-08-12T08:50:17.001Z,23.00
2016-08-12T08:51:39.612Z,22.00
2016-08-12T08:52:39.999Z,20.00
2016-08-12T08:53:40.516Z,20.00
2016-08-12T08:54:41.250Z,21.00
2016-08-12T08:55:41.589Z,19.00
2016-08-12T08:56:41.975Z,19.00
2016-08-12T08:57:42.819Z,20.00
2016-08-12T08:58:43.465Z,21.00
2016-08-12T08:59:43.853Z,22.00
2016-08-12T09:00:44.097Z,22.00
2016-08-12T09:01:44.953Z,21.00
2016-08-12T09:02:45.578Z,20.00
2016-08-12T09:03:45.957Z,19.00
2016-08-12T09:04:46.331Z,20.00
2016-08-12T09:05:47.161Z,22.00
2016-08-12T09:06:47.704Z,23.00
2016-08-12T09:07:48.067Z,23.00
2016-08-12T09:08:50.261Z,24.00
2016-08-12T09:09:48.963Z,27.00
2016-08-12T09:10:49.497Z,29.00
2016-08-12T09:11:50.476Z,29.00
2016-08-12T09:12:50.550Z,27.00
2016-08-12T09:13:51.230Z,25.00
2016-08-12T09:14:51.798Z,30.00
2016-08-12T09:15:52.586Z,32.00
2016-08-12T09:16:52.532Z,31.00
2016-08-12T09:17:53.339Z,31.00
2016-08-12T09:18:54.010Z,31.00
2016-08-12T09:20:37.216Z,30.00
2016-08-12T09:21:55.623Z,30.00
2016-08-12T09:22:56.136Z,30.00
2016-08-12T09:23:56.654Z,30.00
2016-08-12T09:24:57.029Z,31.00
2016-08-12T09:25:57.567Z,31.00
2016-08-12T09:26:57.981Z,30.00
2016-08-12T09:27:58.463Z,28.00
2016-08-12T09:28:59.174Z,28.00
2016-08-12T09:29:59.819Z,24.00
2016-08-12T09:31:00.210Z,24.00
2016-08-12T09:32:00.723Z,24.00
2016-08-12T09:33:01.560Z,24.00
2016-08-12T09:34:01.940Z,27.00
2016-08-12T09:35:45.276Z,28.00
2016-08-12T09:37:03.542Z,24.00
2016-08-12T09:38:03.901Z,22.00
2016-08-12T09:39:04.313Z,21.00
2016-08-12T09:40:04.822Z,22.00
2016-08-12T09:41:05.326Z,22.00
2016-08-12T09:42:06.156Z,22.00
2016-08-12T09:43:06.531Z,20.00
2016-08-12T09:44:07.063Z,20.00
2016-08-12T09:45:07.468Z,20.00
2016-08-12T09:46:08.271Z,21.00
2016-08-12T09:47:08.790Z,22.00
2016-08-12T09:48:09.484Z,22.00
2016-08-12T09:49:09.708Z,21.00
2016-08-12T09:50:57.421Z,18.00
2016-08-12T09:52:11.449Z,17.00
2016-08-12T09:53:11.698Z,15.00
2016-08-12T09:54:12.197Z,12.00
2016-08-12T09:55:13.030Z,12.00
2016-08-12T09:56:15.196Z,13.00
2016-08-12T09:57:13.945Z,14.00
2016-08-12T09:58:14.178Z,16.00
2016-08-12T09:59:15.125Z,18.00
2016-08-12T10:00:15.373Z,19.00
2016-08-12T10:01:16.177Z,20.00
2016-08-12T10:02:16.551Z,22.00
2016-08-12T10:03:16.818Z,24.00
2016-08-12T10:04:17.521Z,24.00
2016-08-12T10:06:01.104Z,26.00
2016-08-12T10:07:19.053Z,28.00
2016-08-12T10:08:19.875Z,27.00
2016-08-12T10:09:20.287Z,27.00
2016-08-12T10:10:20.966Z,27.00
2016-08-12T10:11:21.052Z,27.00
2016-08-12T10:12:21.898Z,28.00
2016-08-12T10:13:22.235Z,27.00
2016-08-12T10:14:22.898Z,27.00
2016-08-12T10:15:23.431Z,27.00
2016-08-12T10:16:23.994Z,25.00
2016-08-12T10:17:24.500Z,24.00
2016-08-12T10:18:25.022Z,24.00
2016-08-12T10:19:25.858Z,24.00
2016-08-12T10:21:17.886Z,23.00
2016-08-12T10:22:27.131Z,23.00
2016-08-12T10:23:27.680Z,24.00
2016-08-12T10:24:28.184Z,24.00
2016-08-12T10:25:28.576Z,24.00
2016-08-12T10:26:31.043Z,24.00
2016-08-12T10:27:29.796Z,25.00
2016-08-12T10:28:30.758Z,27.00
2016-08-12T10:29:30.852Z,28.00
2016-08-12T10:30:31.848Z,28.00
2016-08-12T10:31:32.027Z,27.00
2016-08-12T10:32:32.569Z,26.00
2016-08-12T10:33:33.092Z,24.00
2016-08-12T10:34:33.325Z,22.00
2016-08-12T10:36:30.014Z,22.00
2016-08-12T10:37:35.351Z,24.00
2016-08-12T10:38:35.728Z,25.00
2016-08-12T10:39:36.392Z,27.00
2016-08-12T10:40:36.628Z,26.00
2016-08-12T10:41:37.043Z,27.00
2016-08-12T10:42:37.542Z,23.00
2016-08-12T10:43:38.201Z,21.00
2016-08-12T10:44:38.587Z,21.00
2016-08-12T10:45:38.982Z,22.00
2016-08-12T10:46:39.671Z,22.00
2016-08-12T10:47:40.484Z,21.00
2016-08-12T10:48:40.913Z,20.00
2016-08-12T10:49:41.701Z,21.00
2016-08-12T10:51:42.293Z,23.00
2016-08-12T10:52:42.987Z,20.00
2016-08-12T10:53:43.541Z,20.00
2016-08-12T10:54:44.207Z,23.00
2016-08-12T10:55:44.556Z,23.00
2016-08-12T10:56:45.140Z,22.00
2016-08-12T10:57:45.610Z,23.00
2016-08-12T10:58:46.134Z,24.00
2016-08-12T10:59:46.518Z,26.00
2016-08-12T11:00:47.056Z,26.00
2016-08-12T11:01:47.438Z,27.00
2016-08-12T11:02:48.108Z,28.00
2016-08-12T11:03:48.774Z,27.00
2016-08-12T11:04:49.612Z,26.00
2016-08-12T11:06:50.667Z,24.00
2016-08-12T11:07:50.899Z,23.00
2016-08-12T11:08:51.440Z,21.00
2016-08-12T11:09:51.799Z,18.00
2016-08-12T11:10:52.627Z,19.00
2016-08-12T11:11:52.856Z,20.00
2016-08-12T11:12:53.524Z,19.00
2016-08-12T11:13:54.204Z,17.00
2016-08-12T11:14:54.434Z,15.00
2016-08-12T11:15:54.987Z,15.00
2016-08-12T11:16:55.967Z,16.00
2016-08-12T11:17:56.035Z,18.00
2016-08-12T11:18:56.559Z,19.00
2016-08-12T11:19:57.408Z,20.00
2016-08-12T11:20:57.952Z,20.00
2016-08-12T11:21:58.144Z,20.00
2016-08-12T11:22:59.111Z,21.00
2016-08-12T11:23:59.490Z,22.00
2016-08-12T11:24:59.738Z,25.00
2016-08-12T11:26:00.252Z,24.00
2016-08-12T11:27:00.785Z,22.00
2016-08-12T11:28:01.463Z,22.00
2016-08-12T11:29:53.669Z,19.00
2016-08-12T11:31:03.092Z,19.00
2016-08-12T11:32:05.374Z,22.00
2016-08-12T11:33:03.803Z,27.00
2016-08-12T11:34:04.628Z,30.00
2016-08-12T11:35:05.178Z,28.00
2016-08-12T11:36:05.681Z,27.00
2016-08-12T11:37:06.225Z,26.00
2016-08-12T11:38:06.746Z,26.00
2016-08-12T11:39:07.409Z,27.00
2016-08-12T11:40:07.507Z,25.00
2016-08-12T11:41:08.609Z,23.00
2016-08-12T11:42:08.865Z,22.00
2016-08-12T11:43:09.385Z,23.00
2016-08-12T11:44:10.055Z,27.00
2016-08-12T11:45:10.573Z,23.00
2016-08-12T11:46:10.952Z,24.00
2016-08-12T11:47:11.183Z,27.00
2016-08-12T11:48:12.168Z,27.00
2016-08-12T11:49:12.413Z,29.00
2016-08-12T11:50:12.909Z,28.00
2016-08-12T11:51:13.608Z,24.00
2016-08-12T11:52:13.986Z,24.00
2016-08-12T11:53:14.958Z,24.00
2016-08-12T11:54:15.211Z,22.00
2016-08-12T11:55:15.704Z,24.00
2016-08-12T11:56:16.404Z,23.00
2016-08-12T11:57:16.910Z,21.00
2016-08-12T11:58:17.601Z,21.00
2016-08-12T11:59:17.960Z,21.00
2016-08-12T12:00:18.059Z,20.00
2016-08-12T12:01:18.927Z,21.00
2016-08-12T12:02:20.173Z,19.00
2016-08-12T12:03:19.793Z,18.00
2016-08-12T12:04:20.317Z,18.00
2016-08-12T12:05:20.859Z,20.00
2016-08-12T12:06:21.385Z,22.00
2016-08-12T12:07:22.487Z,22.00
2016-08-12T12:08:22.569Z,21.00
2016-08-12T12:09:23.248Z,21.00
2016-08-12T12:10:23.926Z,21.00
2016-08-12T12:11:24.297Z,19.00
2016-08-12T12:12:24.565Z,17.00
2016-08-12T12:13:25.371Z,15.00
2016-08-12T12:14:25.902Z,14.00
2016-08-12T12:15:26.410Z,14.00
2016-08-12T12:16:27.113Z,12.00
2016-08-12T12:17:27.175Z,11.00
2016-08-12T12:18:27.867Z,10.00
2016-08-12T12:19:28.232Z,10.00
2016-08-12T12:20:30.566Z,9.00
2016-08-12T12:21:29.275Z,10.00
2016-08-12T12:22:29.979Z,11.00
2016-08-12T12:23:30.501Z,10.00
2016-08-12T12:24:30.895Z,10.00
2016-08-12T12:25:31.414Z,10.00
2016-08-12T12:26:32.070Z,10.00
2016-08-12T12:27:32.888Z,11.00
2016-08-12T12:28:32.987Z,11.00
2016-08-12T12:29:33.644Z,10.00
2016-08-12T12:30:34.182Z,10.00
2016-08-12T12:31:34.727Z,9.00
2016-08-12T12:32:34.963Z,9.00
2016-08-12T12:33:35.463Z,10.00
2016-08-12T12:34:36.013Z,10.00
2016-08-12T12:35:36.837Z,9.00
2016-08-12T12:36:37.497Z,9.00
2016-08-12T12:37:37.594Z,9.00
2016-08-12T12:38:38.585Z,10.00
2016-08-12T12:39:38.947Z,11.00
2016-08-12T12:41:35.669Z,13.00
2016-08-12T12:42:40.426Z,13.00
2016-08-12T12:43:41.049Z,15.00
2016-08-12T12:44:41.602Z,19.00
2016-08-12T12:45:42.135Z,22.00
2016-08-12T12:46:42.944Z,26.00
2016-08-12T12:47:43.011Z,32.00
2016-08-12T12:48:43.698Z,36.00
2016-08-12T12:49:44.067Z,38.00
2016-08-12T12:50:45.982Z,37.00
2016-08-12T12:51:45.592Z,39.00
2016-08-12T12:52:45.682Z,39.00
2016-08-12T12:54:46.862Z,31.00
2016-08-12T12:55:47.268Z,31.00
2016-08-12T12:56:47.789Z,31.00
2016-08-12T12:57:48.471Z,34.00
2016-08-12T12:58:48.970Z,34.00
2016-08-12T12:59:49.805Z,37.00
2016-08-12T13:00:50.202Z,37.00
2016-08-12T13:01:50.409Z,37.00
2016-08-12T13:02:51.080Z,36.00
2016-08-12T13:03:51.455Z,36.00
2016-08-12T13:04:52.001Z,38.00
2016-08-12T13:05:52.404Z,38.00
2016-08-12T13:06:53.065Z,34.00
2016-08-12T13:07:53.588Z,33.00
2016-08-12T13:08:54.381Z,33.00
2016-08-12T13:09:54.761Z,33.00
2016-08-12T13:10:55.291Z,36.00
2016-08-12T13:11:55.523Z,41.00
2016-08-12T13:12:56.194Z,41.00
2016-08-12T13:13:56.884Z,32.00
2016-08-12T13:14:57.427Z,30.00
2016-08-12T13:15:57.953Z,31.00
2016-08-12T13:16:58.332Z,30.00
2016-08-12T13:17:58.868Z,27.00
2016-08-12T13:18:59.233Z,25.00
2016-08-12T13:20:00.066Z,25.00
2016-08-12T13:21:00.602Z,24.00
2016-08-12T13:22:01.286Z,23.00
2016-08-12T13:23:01.643Z,21.00
2016-08-12T13:24:02.039Z,19.00
2016-08-12T13:25:02.585Z,18.00
2016-08-12T13:26:03.372Z,16.00
2016-08-12T13:27:03.909Z,17.00
2016-08-12T13:28:04.429Z,18.00
2016-08-12T13:29:04.950Z,18.00
2016-08-12T13:30:05.501Z,17.00
2016-08-12T13:31:06.016Z,17.00
2016-08-12T13:32:06.685Z,18.00
2016-08-12T13:33:06.934Z,19.00
2016-08-12T13:34:07.741Z,19.00
2016-08-12T13:35:07.982Z,20.00
2016-08-12T13:36:08.349Z,19.00
2016-08-12T13:37:08.885Z,18.00
2016-08-12T13:38:09.576Z,20.00
2016-08-12T13:39:10.529Z,26.00
2016-08-12T13:40:10.473Z,30.00
2016-08-12T13:41:11.139Z,31.00
2016-08-12T13:42:11.678Z,28.00
2016-08-12T13:43:12.371Z,27.00